createdAt,value
2023-05-23T00:03:19.781Z,22.33
2023-05-23T00:10:03.540Z,22.43
2023-05-23T00:12:53.603Z,22.39
2023-05-23T00:39:08.872Z,22.54
2023-05-23T01:05:50.199Z,22.66
2023-05-23T01:15:11.754Z,22.66
2023-05-23T01:17:46.342Z,22.65
2023-05-23T01:20:19.530Z,22.62
2023-05-23T01:23:03.511Z,22.70
2023-05-23T01:25:49.071Z,22.71
2023-05-23T01:28:21.597Z,22.74
2023-05-23T01:30:50.653Z,22.74
2023-05-23T01:33:19.809Z,22.74
2023-05-23T01:35:48.789Z,22.73
2023-05-23T01:38:17.805Z,22.75
2023-05-23T01:40:55.626Z,22.77
2023-05-23T01:43:28.095Z,22.77
2023-05-23T01:46:00.032Z,22.75
2023-05-23T01:48:29.396Z,22.76
2023-05-23T01:50:58.778Z,22.77
2023-05-23T01:53:27.881Z,22.82
2023-05-23T01:55:57.367Z,22.82
2023-05-23T01:58:26.401Z,22.82
2023-05-23T02:08:24.562Z,21.88
2023-05-23T02:11:28.984Z,22.11
2023-05-23T02:34:28.926Z,22.00
2023-05-23T02:51:56.366Z,21.92
2023-05-23T02:54:43.009Z,21.91
2023-05-23T02:57:21.608Z,21.95
2023-05-23T03:22:29.164Z,21.96
2023-05-23T03:28:26.072Z,21.99
2023-05-23T03:31:16.044Z,22.01
2023-05-23T03:36:48.923Z,22.05
2023-05-23T03:39:29.669Z,22.03
2023-05-23T03:42:03.712Z,22.05
2023-05-23T03:44:38.088Z,22.02
2023-05-23T03:47:18.650Z,22.01
2023-05-23T03:50:03.138Z,22.07
2023-05-23T03:52:38.420Z,22.09
2023-05-23T03:55:34.488Z,22.09
2023-05-23T03:58:29.612Z,22.00
2023-05-23T04:02:03.838Z,22.06
2023-05-23T04:07:42.178Z,22.10
2023-05-23T04:10:17.186Z,22.04
2023-05-23T04:12:49.670Z,22.12
2023-05-23T04:21:23.000Z,22.13
2023-05-23T04:24:06.830Z,22.08
2023-05-23T04:26:56.998Z,22.11
2023-05-23T04:32:32.291Z,22.13
2023-05-23T04:35:13.547Z,22.14
2023-05-23T04:37:56.303Z,22.18
2023-05-23T04:40:47.292Z,22.20
2023-05-23T04:43:23.834Z,22.21
2023-05-23T04:45:57.457Z,22.22
2023-05-23T04:48:40.651Z,22.14
2023-05-23T05:10:49.233Z,22.23
2023-05-23T05:13:23.850Z,22.25
2023-05-23T05:15:58.557Z,22.30
2023-05-23T05:18:29.304Z,22.28
2023-05-23T05:21:01.708Z,22.26
2023-05-23T05:23:35.537Z,22.28
2023-05-23T05:26:20.766Z,22.30
2023-05-23T05:28:53.378Z,22.33
2023-05-23T05:31:25.636Z,22.31
2023-05-23T05:33:54.728Z,22.36
2023-05-23T05:36:28.695Z,22.35
2023-05-23T05:39:00.359Z,22.36
2023-05-23T05:41:31.825Z,22.35
2023-05-23T05:44:00.962Z,22.36
2023-05-23T05:46:32.291Z,22.44
2023-05-23T05:49:02.300Z,22.42
2023-05-23T05:51:43.404Z,22.46
2023-05-23T05:54:35.812Z,22.35
2023-05-23T05:57:38.179Z,22.32
2023-05-23T06:06:57.249Z,22.38
2023-05-23T06:09:32.108Z,22.40
2023-05-23T06:12:25.306Z,22.41
2023-05-23T06:17:59.612Z,22.46
2023-05-23T06:20:51.787Z,22.46
2023-05-23T06:26:25.375Z,22.49
2023-05-23T06:29:35.200Z,22.75
2023-05-23T06:32:08.111Z,22.58
2023-05-23T06:34:49.275Z,22.58
2023-05-23T06:37:19.644Z,22.50
2023-05-23T06:40:01.609Z,22.48
2023-05-23T06:42:30.845Z,22.49
2023-05-23T06:45:02.811Z,22.49
2023-05-23T06:47:37.280Z,22.49
2023-05-23T06:50:09.615Z,22.50
2023-05-23T06:52:41.881Z,22.47
2023-05-23T06:55:11.432Z,22.51
2023-05-23T06:57:57.744Z,22.51
2023-05-23T07:00:32.698Z,22.52
2023-05-23T07:03:07.802Z,22.48
2023-05-23T07:05:45.366Z,22.51
2023-05-23T07:08:14.759Z,22.50
2023-05-23T07:10:47.036Z,22.47
2023-05-23T07:13:16.160Z,22.48
2023-05-23T07:15:45.240Z,22.42
2023-05-23T07:18:29.226Z,22.48
2023-05-23T07:20:58.267Z,22.45
2023-05-23T07:23:27.388Z,22.49
2023-05-23T07:26:02.339Z,22.49
2023-05-23T07:28:37.223Z,22.51
2023-05-23T07:31:22.575Z,22.51
2023-05-23T07:34:00.877Z,22.53
2023-05-23T07:36:31.107Z,22.51
2023-05-23T07:39:06.094Z,22.51
2023-05-23T07:41:44.129Z,22.49
2023-05-23T07:44:16.205Z,22.50
2023-05-23T07:46:48.681Z,22.53
2023-05-23T07:49:21.180Z,22.54
2023-05-23T07:51:56.529Z,22.54
2023-05-23T07:54:42.528Z,22.54
2023-05-23T07:57:18.218Z,22.52
2023-05-23T08:00:10.625Z,22.53
2023-05-23T08:03:12.907Z,22.54
2023-05-23T08:05:49.708Z,22.51
2023-05-23T08:08:28.053Z,22.53
2023-05-23T08:11:10.225Z,22.54
2023-05-23T08:13:39.426Z,22.53
2023-05-23T08:16:13.941Z,22.53
2023-05-23T08:18:49.441Z,22.52
2023-05-23T08:21:21.786Z,22.54
2023-05-23T08:23:51.170Z,22.52
2023-05-23T08:26:23.343Z,22.52
2023-05-23T08:28:55.831Z,22.53
2023-05-23T08:31:39.310Z,22.50
2023-05-23T08:34:19.035Z,22.50
2023-05-23T08:36:53.950Z,22.51
2023-05-23T08:39:25.797Z,22.44
2023-05-23T08:41:57.746Z,22.49
2023-05-23T08:44:32.520Z,22.51
2023-05-23T08:47:16.216Z,22.47
2023-05-23T08:49:45.989Z,22.48
2023-05-23T08:52:15.262Z,22.51
2023-05-23T08:54:44.515Z,22.51
2023-05-23T08:57:13.635Z,22.51
2023-05-23T08:59:51.717Z,22.51
2023-05-23T09:02:26.468Z,22.53
2023-05-23T09:05:05.245Z,22.48
2023-05-23T09:07:34.913Z,22.47
2023-05-23T09:10:08.794Z,22.48
2023-05-23T09:12:43.583Z,22.45
2023-05-23T09:15:15.866Z,22.45
2023-05-23T09:17:45.328Z,22.47
2023-05-23T09:20:16.152Z,22.50
2023-05-23T09:22:51.270Z,22.46
2023-05-23T09:25:22.985Z,22.44
2023-05-23T09:28:01.165Z,22.42
2023-05-23T09:30:30.624Z,22.45
2023-05-23T09:33:05.862Z,22.45
2023-05-23T09:35:38.059Z,22.47
2023-05-23T09:38:10.755Z,22.39
2023-05-23T09:40:42.749Z,22.40
2023-05-23T09:43:12.055Z,22.41
2023-05-23T09:45:46.163Z,22.44
2023-05-23T09:48:15.717Z,22.44
2023-05-23T09:50:50.334Z,22.40
2023-05-23T09:53:29.530Z,22.41
2023-05-23T09:56:08.291Z,22.42
2023-05-23T09:58:40.558Z,22.37
2023-05-23T10:01:12.855Z,22.39
2023-05-23T10:04:04.778Z,22.35
2023-05-23T10:06:47.892Z,22.33
2023-05-23T10:09:22.541Z,22.36
2023-05-23T10:12:00.824Z,22.32
2023-05-23T10:14:32.357Z,22.32
2023-05-23T10:17:20.958Z,22.31
2023-05-23T10:19:56.838Z,22.26
2023-05-23T10:22:28.704Z,22.25
2023-05-23T10:25:08.421Z,22.28
2023-05-23T10:27:37.591Z,22.23
2023-05-23T10:30:07.404Z,22.23
2023-05-23T10:32:37.450Z,22.23
2023-05-23T10:35:09.954Z,22.25
2023-05-23T10:38:04.756Z,22.23
2023-05-23T10:40:34.470Z,22.20
2023-05-23T10:43:09.014Z,22.17
2023-05-23T10:45:59.751Z,22.13
2023-05-23T10:48:36.646Z,22.13
2023-05-23T10:51:08.860Z,22.13
2023-05-23T10:53:39.166Z,22.13
2023-05-23T10:56:11.950Z,22.11
2023-05-23T10:58:44.716Z,22.11
2023-05-23T11:01:19.711Z,22.12
2023-05-23T11:03:52.016Z,22.13
2023-05-23T11:06:53.788Z,22.12
2023-05-23T11:09:23.876Z,22.09
2023-05-23T11:11:57.824Z,22.06
2023-05-23T11:14:42.666Z,22.04
2023-05-23T11:17:27.059Z,22.04
2023-05-23T11:20:09.021Z,22.05
2023-05-23T11:22:41.654Z,22.03
2023-05-23T11:25:13.939Z,21.99
2023-05-23T11:27:43.561Z,22.01
2023-05-23T11:30:25.145Z,21.97
2023-05-23T11:33:05.622Z,21.98
2023-05-23T11:35:37.050Z,21.97
2023-05-23T11:38:07.373Z,21.94
2023-05-23T11:40:37.534Z,21.89
2023-05-23T11:43:23.305Z,21.87
2023-05-23T11:46:01.194Z,21.90
2023-05-23T11:48:39.744Z,21.89
2023-05-23T11:51:08.928Z,21.89
2023-05-23T11:53:50.941Z,21.88
2023-05-23T11:56:24.432Z,21.88
2023-05-23T11:58:56.612Z,21.86
2023-05-23T12:01:35.537Z,21.86
2023-05-23T12:04:11.516Z,21.81
2023-05-23T12:06:44.199Z,21.82
2023-05-23T12:09:17.116Z,21.80
2023-05-23T12:11:47.146Z,21.78
2023-05-23T12:14:20.375Z,21.80
2023-05-23T12:16:55.213Z,21.78
2023-05-23T12:19:24.399Z,21.77
2023-05-23T12:21:53.415Z,21.77
2023-05-23T12:24:26.132Z,21.76
2023-05-23T12:27:00.971Z,21.76
2023-05-23T12:29:41.646Z,21.76
2023-05-23T12:32:25.850Z,21.78
2023-05-23T12:34:58.276Z,21.77
2023-05-23T12:37:30.096Z,21.76
2023-05-23T12:40:01.773Z,21.73
2023-05-23T12:42:30.963Z,21.72
2023-05-23T12:45:00.443Z,21.70
2023-05-23T12:47:32.494Z,21.70
2023-05-23T12:50:13.413Z,21.68
2023-05-23T12:52:42.886Z,21.70
2023-05-23T12:55:16.171Z,21.69
2023-05-23T12:57:48.035Z,21.68
2023-05-23T13:00:22.418Z,21.66
2023-05-23T13:02:52.058Z,21.64
2023-05-23T13:05:23.312Z,21.65
2023-05-23T13:08:05.327Z,21.63
2023-05-23T13:10:37.514Z,21.60
2023-05-23T13:13:07.869Z,21.58
2023-05-23T13:15:36.991Z,21.57
2023-05-23T13:20:50.521Z,21.61
2023-05-23T13:23:40.353Z,21.56
2023-05-23T13:26:10.371Z,21.60
2023-05-23T13:28:42.019Z,21.57
2023-05-23T13:31:25.166Z,21.57
2023-05-23T13:33:54.290Z,21.53
2023-05-23T13:36:24.312Z,21.49
2023-05-23T13:38:53.704Z,21.46
2023-05-23T13:41:26.036Z,21.41
2023-05-23T13:43:55.157Z,21.40
2023-05-23T13:46:24.514Z,21.39
2023-05-23T13:48:55.846Z,21.39
2023-05-23T13:51:24.922Z,21.36
2023-05-23T13:53:54.129Z,21.35
2023-05-23T13:56:26.284Z,21.37
2023-05-23T13:59:00.918Z,21.32
2023-05-23T14:01:32.317Z,21.31
2023-05-23T14:04:06.715Z,21.30
2023-05-23T14:06:36.373Z,21.29
2023-05-23T14:09:08.532Z,21.28
2023-05-23T14:11:46.293Z,21.30
2023-05-23T14:14:28.811Z,21.27
2023-05-23T14:17:01.341Z,21.25
2023-05-23T14:19:30.660Z,21.24
2023-05-23T14:21:59.823Z,21.23
2023-05-23T14:24:39.426Z,21.22
2023-05-23T14:27:11.632Z,21.21
2023-05-23T14:29:49.874Z,21.20
2023-05-23T14:35:08.289Z,21.16
2023-05-23T14:37:37.620Z,21.15
2023-05-23T14:40:10.396Z,21.13
2023-05-23T14:42:42.141Z,21.12
2023-05-23T14:45:15.282Z,21.13
2023-05-23T14:47:46.202Z,21.08
2023-05-23T14:50:18.266Z,21.08
2023-05-23T14:52:48.195Z,21.07
2023-05-23T14:55:18.052Z,21.03
2023-05-23T14:57:52.407Z,21.02
2023-05-23T15:00:27.512Z,21.01
2023-05-23T15:02:58.867Z,21.00
2023-05-23T15:05:28.030Z,21.01
2023-05-23T15:08:03.051Z,20.98
2023-05-23T15:10:37.034Z,20.98
2023-05-23T15:13:09.848Z,20.97
2023-05-23T15:15:44.852Z,20.95
2023-05-23T15:18:27.869Z,20.97
2023-05-23T15:21:10.903Z,20.97
2023-05-23T15:24:08.687Z,20.96
2023-05-23T15:26:44.029Z,20.96
2023-05-23T15:29:25.504Z,20.93
2023-05-23T15:32:06.023Z,20.92
2023-05-23T15:34:35.209Z,20.94
2023-05-23T15:37:07.445Z,20.92
2023-05-23T15:39:43.977Z,20.92
2023-05-23T15:42:27.503Z,20.92
2023-05-23T15:44:59.503Z,20.87
2023-05-23T15:47:33.921Z,20.88
2023-05-23T15:50:17.528Z,20.88
2023-05-23T15:52:54.609Z,20.87
2023-05-23T15:55:26.969Z,20.89
2023-05-23T15:58:03.492Z,20.84
2023-05-23T16:00:34.709Z,20.85
2023-05-23T16:03:04.041Z,20.84
2023-05-23T16:05:33.513Z,20.84
2023-05-23T16:08:17.392Z,20.82
2023-05-23T16:10:55.634Z,20.81
2023-05-23T16:13:25.022Z,20.76
2023-05-23T16:16:06.544Z,20.82
2023-05-23T16:18:35.961Z,20.79
2023-05-23T16:21:07.323Z,20.75
2023-05-23T16:23:36.417Z,20.76
2023-05-23T16:26:11.625Z,20.75
2023-05-23T16:28:45.511Z,20.76
2023-05-23T16:31:18.394Z,20.73
2023-05-23T16:33:47.963Z,20.74
2023-05-23T16:36:27.919Z,20.74
2023-05-23T16:39:07.331Z,20.73
2023-05-23T16:41:36.594Z,20.74
2023-05-23T16:44:05.974Z,20.75
2023-05-23T16:46:37.158Z,20.73
2023-05-23T16:49:15.085Z,20.72
2023-05-23T16:51:55.654Z,20.70
2023-05-23T16:54:31.736Z,20.67
2023-05-23T16:57:08.927Z,20.69
2023-05-23T16:59:42.268Z,20.71
2023-05-23T17:02:15.357Z,20.65
2023-05-23T17:04:57.311Z,20.67
2023-05-23T17:07:26.449Z,20.68
2023-05-23T17:09:55.750Z,20.69
2023-05-23T17:12:24.927Z,20.65
2023-05-23T17:15:02.807Z,20.62
2023-05-23T17:17:44.112Z,20.63
2023-05-23T17:20:23.325Z,20.64
2023-05-23T17:22:56.020Z,20.59
2023-05-23T17:25:28.464Z,20.65
2023-05-23T17:28:00.585Z,20.63
2023-05-23T17:30:32.895Z,20.57
2023-05-23T17:33:10.927Z,20.56
2023-05-23T17:35:55.632Z,20.54
2023-05-23T17:38:27.770Z,20.58
2023-05-23T17:40:56.904Z,20.53
2023-05-23T17:43:28.749Z,20.55
2023-05-23T17:46:05.156Z,20.53
2023-05-23T17:48:48.110Z,20.49
2023-05-23T17:51:20.238Z,20.50
2023-05-23T17:53:53.171Z,20.52
2023-05-23T17:56:26.443Z,20.50
2023-05-23T17:58:55.507Z,20.50
2023-05-23T18:01:28.710Z,20.49
2023-05-23T18:03:58.061Z,20.50
2023-05-23T18:06:30.975Z,20.47
2023-05-23T18:09:00.219Z,20.46
2023-05-23T18:11:32.305Z,20.43
2023-05-23T18:14:04.661Z,20.44
2023-05-23T18:16:33.881Z,20.41
2023-05-23T18:19:03.252Z,20.43
2023-05-23T18:21:33.864Z,20.40
2023-05-23T18:24:06.806Z,20.40
2023-05-23T18:26:35.956Z,20.37
2023-05-23T18:29:06.582Z,20.38
2023-05-23T18:31:41.369Z,20.38
2023-05-23T18:34:20.120Z,20.36
2023-05-23T18:36:54.968Z,20.37
2023-05-23T18:39:30.045Z,20.34
2023-05-23T18:41:59.640Z,20.35
2023-05-23T18:44:28.939Z,20.34
2023-05-23T18:46:58.512Z,20.32
2023-05-23T18:49:29.899Z,20.31
2023-05-23T18:52:00.982Z,20.31
2023-05-23T18:54:30.275Z,20.30
2023-05-23T18:57:01.324Z,20.31
2023-05-23T18:59:32.164Z,20.30
2023-05-23T19:02:06.598Z,20.32
2023-05-23T19:04:41.572Z,20.29
2023-05-23T19:07:11.016Z,20.28
2023-05-23T19:09:40.218Z,20.28
2023-05-23T19:12:09.442Z,20.28
2023-05-23T19:14:47.710Z,20.28
2023-05-23T19:17:19.501Z,20.28
2023-05-23T19:19:51.302Z,20.26
2023-05-23T19:22:23.606Z,20.26
2023-05-23T19:24:57.528Z,20.24
2023-05-23T19:27:26.666Z,20.25
2023-05-23T19:29:55.759Z,20.25
2023-05-23T19:32:25.214Z,20.26
2023-05-23T19:35:00.186Z,20.24
2023-05-23T19:37:29.481Z,20.23
2023-05-23T19:40:00.323Z,20.21
2023-05-23T19:42:32.317Z,20.21
2023-05-23T19:45:07.192Z,20.20
2023-05-23T19:47:41.263Z,20.19
2023-05-23T19:50:12.489Z,20.20
2023-05-23T19:52:42.060Z,20.17
2023-05-23T19:55:13.784Z,20.17
2023-05-23T19:57:43.343Z,20.17
2023-05-23T20:00:12.760Z,20.16
2023-05-23T20:02:42.019Z,20.18
2023-05-23T20:05:11.329Z,20.14
2023-05-23T20:07:44.186Z,20.14
2023-05-23T20:10:18.172Z,20.15
2023-05-23T20:12:49.395Z,20.13
2023-05-23T20:15:31.288Z,20.13
2023-05-23T20:18:08.191Z,20.12
2023-05-23T20:20:42.849Z,20.10
2023-05-23T20:23:14.327Z,20.10
2023-05-23T20:25:49.127Z,20.12
2023-05-23T20:28:27.151Z,20.08
2023-05-23T20:31:05.090Z,20.08
2023-05-23T20:33:36.107Z,20.08
2023-05-23T20:36:08.348Z,20.08
2023-05-23T20:38:40.946Z,20.12
2023-05-23T20:41:10.076Z,20.14
2023-05-23T20:43:44.892Z,20.13
2023-05-23T20:56:01.837Z,20.19
2023-05-23T21:02:54.687Z,20.13
2023-05-23T21:06:01.629Z,20.08
2023-05-23T21:08:31.719Z,19.92
2023-05-23T21:14:26.785Z,19.93
2023-05-23T21:17:13.044Z,20.08
2023-05-23T21:19:50.583Z,20.03
2023-05-23T21:25:46.929Z,20.28
2023-05-23T21:31:40.292Z,20.28
2023-05-23T21:34:23.403Z,20.32
2023-05-23T21:36:54.132Z,20.40
2023-05-23T21:42:29.007Z,20.49
2023-05-23T21:45:09.035Z,20.51
2023-05-23T21:48:59.648Z,20.50
2023-05-23T22:05:58.637Z,20.67
2023-05-23T22:07:50.979Z,20.62
2023-05-23T22:10:44.099Z,20.70
2023-05-23T22:13:19.038Z,20.75
2023-05-23T22:16:39.524Z,20.80
2023-05-23T22:19:36.619Z,20.91
2023-05-23T22:28:41.885Z,21.25
2023-05-23T22:54:04.690Z,-144.77
2023-05-23T22:56:36.193Z,-144.77
2023-05-23T22:59:06.381Z,-144.77
2023-05-23T23:01:45.142Z,-144.77
2023-05-23T23:04:30.114Z,-144.77
2023-05-23T23:07:03.307Z,-144.77
2023-05-23T23:09:41.084Z,-144.77
2023-05-23T23:12:13.097Z,-144.77
2023-05-23T23:14:43.949Z,-144.77
2023-05-23T23:19:57.254Z,-144.77
2023-05-23T23:22:26.578Z,-144.77
2023-05-23T23:24:58.818Z,-144.77
2023-05-23T23:27:35.648Z,-144.77
2023-05-23T23:30:07.501Z,-144.77
2023-05-23T23:32:39.626Z,-144.77
2023-05-23T23:35:21.061Z,-144.77
2023-05-23T23:37:55.075Z,-144.77
2023-05-23T23:40:42.022Z,-144.77
2023-05-23T23:43:22.103Z,-144.77
2023-05-23T23:45:51.304Z,-144.77
2023-05-23T23:48:29.617Z,-144.77
2023-05-23T23:51:13.550Z,-144.77
2023-05-23T23:53:48.032Z,-144.77
2023-05-23T23:56:27.317Z,-144.77
2023-05-23T23:58:56.504Z,-144.77
